Time;durP1;ratioP1;P1;durP2;ratioP2;P2;SDS_P1;SDS_P2;PMS_P1;PMS_P2;Temp;Humidity;BMP_temperature;BMP_pressure;BME280_temperature;BME280_humidity;BME280_pressure;Samples;Min_cycle;Max_cycle;Signal;HPM_P1;HPM_P2
2023/09/23 00:01:26;;;;;;;7.35;3.97;;;13.00;99.90;;;;;;4935054;29;20036;-81
2023/09/23 00:03:52;;;;;;;6.95;3.85;;;13.00;99.90;;;;;;4931871;29;20039;-81
2023/09/23 00:06:22;;;;;;;9.50;3.83;;;12.80;99.90;;;;;;4928623;29;20044;-81
2023/09/23 00:08:49;;;;;;;6.43;4.00;;;12.80;99.90;;;;;;4934590;29;20418;-81
2023/09/23 00:11:15;;;;;;;6.07;4.00;;;12.80;99.90;;;;;;4932830;29;20035;-81
2023/09/23 00:13:42;;;;;;;9.35;4.30;;;12.80;99.90;;;;;;4934579;29;20131;-81
2023/09/23 00:16:16;;;;;;;6.35;3.67;;;12.90;99.90;;;;;;4948552;29;20052;-81
2023/09/23 00:18:43;;;;;;;7.60;3.63;;;12.80;99.90;;;;;;4929238;29;20122;-81
2023/09/23 00:21:11;;;;;;;10.05;3.60;;;12.80;99.90;;;;;;4946909;29;20050;-81
2023/09/23 00:23:39;;;;;;;6.65;3.55;;;12.80;99.90;;;;;;4924514;29;20064;-81
2023/09/23 00:26:10;;;;;;;5.70;3.10;;;12.70;99.90;;;;;;4933082;29;20078;-81
2023/09/23 00:28:36;;;;;;;6.65;2.60;;;12.70;99.90;;;;;;4966474;29;20036;-81
2023/09/23 00:31:11;;;;;;;4.68;2.40;;;12.70;99.90;;;;;;4945690;29;20084;-81
2023/09/23 00:33:38;;;;;;;5.60;2.28;;;12.60;99.90;;;;;;4929376;29;20044;-81
2023/09/23 00:36:08;;;;;;;5.03;2.63;;;12.60;99.90;;;;;;4946171;29;20048;-81
2023/09/23 00:38:40;;;;;;;5.10;2.20;;;12.60;99.90;;;;;;4918372;29;20127;-81
2023/09/23 00:41:08;;;;;;;3.60;2.20;;;12.60;99.90;;;;;;4935138;29;20043;-81
2023/09/23 00:43:35;;;;;;;5.32;2.20;;;12.60;99.90;;;;;;4949648;29;20040;-81
2023/09/23 00:46:06;;;;;;;4.07;2.13;;;12.60;99.90;;;;;;4951639;29;20044;-80
2023/09/23 00:48:44;;;;;;;6.18;2.00;;;12.50;99.90;;;;;;4934270;29;20574;-81
2023/09/23 00:51:11;;;;;;;5.72;2.20;;;12.60;99.90;;;;;;4926185;29;20051;-81
2023/09/23 00:53:47;;;;;;;3.28;1.70;;;12.50;99.90;;;;;;4952798;29;20051;-81
2023/09/23 00:56:16;;;;;;;4.25;1.85;;;12.50;99.90;;;;;;4937278;29;20083;-81
2023/09/23 00:58:44;;;;;;;5.25;1.55;;;12.50;99.90;;;;;;4933436;29;20176;-81
2023/09/23 01:01:10;;;;;;;6.10;1.90;;;12.50;99.90;;;;;;4928403;29;20158;-81
2023/09/23 01:03:38;;;;;;;3.00;1.48;;;12.50;99.90;;;;;;4933738;29;20165;-81
2023/09/23 01:06:15;;;;;;;3.70;1.70;;;12.40;99.90;;;;;;4928686;29;20048;-81
2023/09/23 01:08:44;;;;;;;5.70;1.90;;;12.40;99.90;;;;;;4946740;29;20122;-81
2023/09/23 01:11:12;;;;;;;4.25;1.73;;;12.50;99.90;;;;;;4934262;29;20040;-80
2023/09/23 01:13:42;;;;;;;4.82;1.67;;;12.40;99.90;;;;;;4936796;29;20130;-80
2023/09/23 01:16:12;;;;;;;4.60;1.70;;;12.30;99.90;;;;;;4935166;29;20059;-81
2023/09/23 01:18:40;;;;;;;4.28;1.80;;;12.40;99.90;;;;;;4942430;29;20811;-80
2023/09/23 01:21:08;;;;;;;3.30;1.70;;;12.30;99.90;;;;;;4948516;29;20501;-80
2023/09/23 01:23:36;;;;;;;4.25;2.00;;;12.40;99.90;;;;;;4951626;29;20055;-80
2023/09/23 01:26:04;;;;;;;6.50;2.13;;;12.30;99.90;;;;;;4936940;29;20400;-80
2023/09/23 01:28:34;;;;;;;5.65;2.30;;;12.30;99.90;;;;;;4933989;29;20040;-80
2023/09/23 01:31:02;;;;;;;5.20;2.47;;;12.30;99.90;;;;;;4934831;29;20376;-80
2023/09/23 01:33:29;;;;;;;5.25;1.98;;;12.30;99.90;;;;;;4937765;29;20054;-80
2023/09/23 01:36:02;;;;;;;5.57;2.03;;;12.30;99.90;;;;;;4946962;29;20559;-80
2023/09/23 01:38:32;;;;;;;6.20;1.80;;;12.30;99.90;;;;;;4937174;29;20083;-80
2023/09/23 01:41:02;;;;;;;4.15;2.10;;;12.30;99.90;;;;;;4949226;29;20071;-80
2023/09/23 01:43:29;;;;;;;3.63;1.90;;;12.30;99.90;;;;;;4917890;29;20427;-80
2023/09/23 01:46:02;;;;;;;3.20;1.90;;;12.30;99.90;;;;;;4918583;29;20048;-80
2023/09/23 01:48:29;;;;;;;3.22;1.65;;;12.30;99.90;;;;;;4948057;29;20044;-80
2023/09/23 01:51:00;;;;;;;3.70;1.70;;;12.20;99.90;;;;;;4923196;29;20421;-80
2023/09/23 01:53:27;;;;;;;4.68;1.80;;;12.20;99.90;;;;;;4949098;29;20050;-80
2023/09/23 01:55:54;;;;;;;3.22;1.70;;;12.20;99.90;;;;;;4924898;29;20048;-80
2023/09/23 01:58:22;;;;;;;3.08;1.60;;;12.20;99.90;;;;;;4963593;29;20051;-80
2023/09/23 02:00:51;;;;;;;3.22;2.00;;;12.20;99.90;;;;;;4948268;29;20052;-80
2023/09/23 02:03:17;;;;;;;2.50;1.25;;;12.10;99.90;;;;;;4964401;29;20043;-80
2023/09/23 02:05:46;;;;;;;2.95;1.40;;;12.20;99.90;;;;;;4947739;29;20036;-80
2023/09/23 02:08:14;;;;;;;4.07;1.40;;;12.20;99.90;;;;;;4950550;29;20035;-80
2023/09/23 02:10:43;;;;;;;3.80;1.58;;;12.10;99.90;;;;;;4957933;29;20035;-80
2023/09/23 02:13:10;;;;;;;4.07;1.38;;;12.10;99.90;;;;;;4958780;29;20392;-80
2023/09/23 02:15:38;;;;;;;3.60;1.30;;;12.20;99.90;;;;;;4965368;29;20047;-80
2023/09/23 02:18:04;;;;;;;5.18;1.35;;;12.20;99.90;;;;;;4940630;29;20059;-81
2023/09/23 02:20:31;;;;;;;3.22;1.33;;;12.20;99.90;;;;;;4966443;29;20047;-81
2023/09/23 02:22:58;;;;;;;3.30;1.50;;;12.20;99.90;;;;;;4953151;29;20114;-80
2023/09/23 02:25:24;;;;;;;2.50;1.33;;;12.10;99.90;;;;;;4940148;29;20040;-81
2023/09/23 02:27:52;;;;;;;2.88;1.30;;;12.20;99.90;;;;;;4969706;29;20130;-81
2023/09/23 02:30:19;;;;;;;3.58;1.50;;;12.20;99.90;;;;;;4951268;29;20475;-81
2023/09/23 02:32:49;;;;;;;4.63;1.25;;;12.10;99.90;;;;;;4957210;29;20127;-80
2023/09/23 02:35:16;;;;;;;3.95;1.52;;;12.10;99.90;;;;;;4965879;29;20071;-81
2023/09/23 02:37:44;;;;;;;2.10;1.17;;;12.10;99.90;;;;;;4955521;29;20453;-81
2023/09/23 02:40:12;;;;;;;2.88;1.25;;;12.10;99.90;;;;;;4949521;29;20126;-81
2023/09/23 02:42:43;;;;;;;2.95;1.20;;;12.10;99.90;;;;;;4958552;29;20531;-81
2023/09/23 02:45:13;;;;;;;4.82;1.27;;;12.10;99.90;;;;;;4947713;29;20412;-81
2023/09/23 02:47:43;;;;;;;3.55;1.30;;;12.10;99.90;;;;;;4954177;29;20044;-81
2023/09/23 02:50:10;;;;;;;3.35;1.08;;;12.10;99.90;;;;;;4952107;29;20039;-81
2023/09/23 02:52:40;;;;;;;2.45;0.90;;;12.00;99.90;;;;;;4958654;29;20047;-80
2023/09/23 02:55:12;;;;;;;2.08;1.00;;;12.00;99.90;;;;;;4957991;29;20499;-81
2023/09/23 02:57:40;;;;;;;2.03;0.95;;;12.00;99.90;;;;;;4943989;29;20082;-81
2023/09/23 03:00:17;;;;;;;4.60;0.93;;;12.00;99.90;;;;;;4953766;29;20051;-81
2023/09/23 03:02:53;;;;;;;3.08;1.00;;;12.00;99.90;;;;;;4973398;29;20114;-81
2023/09/23 03:05:25;;;;;;;5.57;1.20;;;12.00;99.90;;;;;;4949106;29;20047;-81
2023/09/23 03:07:58;;;;;;;3.13;1.35;;;12.00;99.90;;;;;;4955728;29;20122;-81
2023/09/23 03:10:32;;;;;;;2.35;1.25;;;12.00;99.90;;;;;;4943395;29;20031;-81
2023/09/23 03:13:05;;;;;;;3.88;1.70;;;12.00;99.90;;;;;;4954189;29;20043;-81
2023/09/23 03:15:50;;;;;;;3.38;1.55;;;12.00;99.90;;;;;;4970977;29;20510;-81
2023/09/23 03:18:27;;;;;;;4.43;2.13;;;11.90;99.90;;;;;;4942100;29;20172;-81
2023/09/23 03:20:55;;;;;;;4.78;1.88;;;11.90;99.90;;;;;;4950184;29;20806;-81
2023/09/23 03:23:23;;;;;;;5.78;1.98;;;11.90;99.90;;;;;;4959637;29;20083;-81
2023/09/23 03:25:51;;;;;;;5.10;1.95;;;11.90;99.90;;;;;;4949714;29;20087;-81
2023/09/23 03:28:18;;;;;;;4.22;2.10;;;11.90;99.90;;;;;;4953278;29;20126;-81
2023/09/23 03:30:47;;;;;;;3.90;2.10;;;11.80;99.90;;;;;;4946804;29;20091;-81
2023/09/23 03:33:18;;;;;;;3.70;2.20;;;11.80;99.90;;;;;;4952460;29;20047;-81
2023/09/23 03:35:44;;;;;;;4.65;2.60;;;11.70;99.90;;;;;;4947754;29;20559;-81
2023/09/23 03:38:12;;;;;;;5.30;2.50;;;11.70;99.90;;;;;;4957810;29;20179;-81
2023/09/23 03:40:38;;;;;;;6.80;2.63;;;11.70;99.90;;;;;;4957541;29;20507;-81
2023/09/23 03:43:05;;;;;;;4.88;2.80;;;11.70;99.90;;;;;;4966658;29;20067;-81
2023/09/23 03:45:34;;;;;;;5.35;2.50;;;11.70;99.90;;;;;;4954417;29;20039;-81
2023/09/23 03:48:01;;;;;;;3.90;2.50;;;11.70;99.90;;;;;;4957423;29;20043;-81
2023/09/23 03:50:29;;;;;;;4.93;2.42;;;11.60;99.90;;;;;;4957410;29;20400;-81
2023/09/23 03:52:55;;;;;;;3.90;2.42;;;11.60;99.90;;;;;;4957875;29;20452;-81
2023/09/23 03:55:22;;;;;;;4.22;2.70;;;11.60;99.90;;;;;;4957486;29;20051;-81
2023/09/23 03:57:49;;;;;;;5.57;2.80;;;11.50;99.90;;;;;;4957168;29;20055;-81
2023/09/23 04:00:16;;;;;;;4.60;2.70;;;11.50;99.90;;;;;;4954737;29;20047;-81
2023/09/23 04:02:46;;;;;;;5.60;3.17;;;11.50;99.90;;;;;;4938352;29;20441;-81
2023/09/23 04:05:16;;;;;;;5.65;3.20;;;11.40;99.90;;;;;;4966910;29;20738;-81
2023/09/23 04:07:49;;;;;;;4.57;2.90;;;11.40;99.90;;;;;;4938490;29;20084;-81
2023/09/23 04:10:23;;;;;;;5.05;3.00;;;11.40;99.90;;;;;;4959358;29;20403;-81
2023/09/23 04:12:51;;;;;;;5.10;2.83;;;11.30;99.90;;;;;;4969787;29;20043;-81
2023/09/23 04:15:24;;;;;;;6.57;2.97;;;11.40;99.90;;;;;;4956793;29;20043;-81
2023/09/23 04:17:51;;;;;;;5.82;3.22;;;11.30;99.90;;;;;;4954866;29;20039;-81
2023/09/23 04:20:18;;;;;;;5.90;3.10;;;11.30;99.90;;;;;;4946499;29;20054;-81
2023/09/23 04:22:48;;;;;;;8.80;3.33;;;11.30;99.90;;;;;;4951773;29;20047;-81
2023/09/23 04:25:15;;;;;;;5.53;3.38;;;11.30;99.90;;;;;;4956761;29;20050;-81
2023/09/23 04:27:42;;;;;;;6.15;3.60;;;11.30;99.90;;;;;;4962599;29;20043;-81
2023/09/23 04:30:11;;;;;;;6.60;3.47;;;11.20;99.90;;;;;;4956474;29;20035;-81
2023/09/23 04:32:42;;;;;;;11.30;3.80;;;11.20;99.90;;;;;;4956596;29;20448;-80
2023/09/23 04:35:11;;;;;;;6.20;3.65;;;11.20;99.90;;;;;;4956415;29;20886;-81
2023/09/23 04:37:39;;;;;;;6.05;3.83;;;11.20;99.90;;;;;;4971258;29;20054;-81
2023/09/23 04:40:10;;;;;;;6.40;4.00;;;11.20;99.90;;;;;;4956860;29;20086;-81
2023/09/23 04:42:39;;;;;;;7.68;4.13;;;11.20;99.90;;;;;;4953382;29;20043;-81
2023/09/23 04:45:06;;;;;;;7.82;4.22;;;11.20;99.90;;;;;;4944627;29;20032;-81
2023/09/23 04:47:33;;;;;;;6.45;4.45;;;11.10;99.90;;;;;;4970140;29;20035;-81
2023/09/23 04:50:00;;;;;;;6.47;4.47;;;11.10;99.90;;;;;;4945916;29;20043;-81
2023/09/23 04:52:30;;;;;;;9.25;4.60;;;11.00;99.90;;;;;;4954519;29;20122;-81
2023/09/23 04:54:57;;;;;;;6.88;4.20;;;11.00;99.90;;;;;;4937270;29;20040;-81
2023/09/23 04:57:24;;;;;;;6.57;4.63;;;11.20;99.90;;;;;;4949394;29;20055;-81
2023/09/23 04:59:52;;;;;;;8.20;4.43;;;11.00;99.90;;;;;;4956272;29;20047;-81
2023/09/23 05:02:18;;;;;;;11.00;4.95;;;11.00;99.90;;;;;;4950474;29;20061;-81
2023/09/23 05:04:45;;;;;;;8.52;5.00;;;10.90;99.90;;;;;;4943711;29;20127;-81
2023/09/23 05:07:12;;;;;;;7.38;4.70;;;11.00;99.90;;;;;;4972078;29;20044;-81
2023/09/23 05:09:42;;;;;;;9.77;5.53;;;10.90;99.90;;;;;;4954598;29;20075;-81
2023/09/23 05:12:09;;;;;;;7.55;5.20;;;10.90;99.90;;;;;;4941266;29;20055;-81
2023/09/23 05:14:36;;;;;;;8.90;4.80;;;10.80;99.90;;;;;;4949144;29;20039;-81
2023/09/23 05:17:06;;;;;;;8.02;5.60;;;10.80;99.90;;;;;;4936384;29;20488;-81
2023/09/23 05:19:33;;;;;;;9.50;5.88;;;10.80;99.90;;;;;;4955208;29;20463;-81
2023/09/23 05:21:59;;;;;;;9.75;5.80;;;10.90;99.90;;;;;;4950386;29;20075;-81
2023/09/23 05:24:27;;;;;;;9.20;5.55;;;10.80;99.90;;;;;;4943721;29;20548;-81
2023/09/23 05:26:55;;;;;;;9.43;5.75;;;10.80;99.90;;;;;;4967676;29;20039;-81
2023/09/23 05:29:22;;;;;;;12.60;5.60;;;10.80;99.90;;;;;;4949856;29;20039;-81
2023/09/23 05:31:49;;;;;;;9.15;5.63;;;10.70;99.90;;;;;;4949060;29;20122;-81
2023/09/23 05:34:18;;;;;;;9.05;6.00;;;10.80;99.90;;;;;;4949980;29;20183;-81
2023/09/23 05:36:48;;;;;;;12.05;5.90;;;10.80;99.90;;;;;;4955908;29;20043;-81
2023/09/23 05:39:18;;;;;;;9.20;6.20;;;10.70;99.90;;;;;;4970356;29;20053;-81
2023/09/23 05:41:47;;;;;;;9.85;6.50;;;10.80;99.90;;;;;;4946374;29;20040;-80
2023/09/23 05:44:15;;;;;;;11.50;6.82;;;11.30;99.90;;;;;;4949332;29;20478;-81
2023/09/23 05:46:43;;;;;;;10.02;6.38;;;10.90;99.90;;;;;;4947654;29;20043;-81
2023/09/23 05:49:13;;;;;;;9.32;6.10;;;10.90;99.90;;;;;;4969961;29;20142;-81
2023/09/23 05:51:40;;;;;;;9.05;5.97;;;10.90;99.90;;;;;;4964395;29;20050;-81
2023/09/23 05:54:09;;;;;;;11.73;6.20;;;11.00;99.90;;;;;;4958180;29;20043;-81
2023/09/23 05:56:36;;;;;;;10.40;6.22;;;11.00;99.90;;;;;;4959159;29;20047;-81
2023/09/23 05:59:05;;;;;;;9.68;6.28;;;11.00;99.90;;;;;;4959430;29;20439;-81
2023/09/23 06:01:33;;;;;;;10.20;6.45;;;11.10;99.90;;;;;;4946595;29;20473;-81
2023/09/23 06:04:03;;;;;;;9.40;6.25;;;11.40;99.90;;;;;;4955965;29;20039;-81
2023/09/23 06:06:30;;;;;;;11.20;7.05;;;11.10;99.90;;;;;;4966436;29;20131;-81
2023/09/23 06:09:00;;;;;;;10.93;6.30;;;11.20;99.90;;;;;;4944819;29;20035;-81
2023/09/23 06:11:26;;;;;;;12.07;6.88;;;11.20;99.90;;;;;;4969319;29;20067;-81
2023/09/23 06:13:53;;;;;;;12.98;7.63;;;11.10;99.90;;;;;;4950440;29;20078;-81
2023/09/23 06:16:20;;;;;;;10.52;7.03;;;11.20;99.90;;;;;;4940180;29;20039;-81
2023/09/23 06:18:46;;;;;;;11.88;7.45;;;11.20;99.90;;;;;;4962222;29;20036;-81
2023/09/23 06:21:13;;;;;;;12.52;7.43;;;11.10;99.90;;;;;;4951795;29;20040;-81
2023/09/23 06:23:40;;;;;;;12.40;7.55;;;11.10;99.90;;;;;;4944837;29;20547;-81
2023/09/23 06:26:10;;;;;;;13.05;8.13;;;11.10;99.90;;;;;;4946252;29;20393;-81
2023/09/23 06:28:37;;;;;;;11.55;8.05;;;11.10;99.90;;;;;;4955563;29;20051;-81
2023/09/23 06:31:06;;;;;;;12.30;8.27;;;11.20;99.90;;;;;;4955424;29;20476;-81
2023/09/23 06:33:33;;;;;;;15.52;8.73;;;11.20;99.90;;;;;;4956924;29;20086;-81
2023/09/23 06:36:04;;;;;;;16.27;9.68;;;11.20;99.90;;;;;;4950572;29;20496;-81
2023/09/23 06:38:34;;;;;;;14.25;9.30;;;11.20;99.90;;;;;;4947915;29;20047;-81
2023/09/23 06:41:01;;;;;;;16.27;9.82;;;11.30;99.90;;;;;;4958194;29;20039;-81
2023/09/23 06:43:28;;;;;;;16.27;10.50;;;11.40;99.90;;;;;;4949965;29;20131;-81
2023/09/23 06:45:58;;;;;;;16.98;10.02;;;11.40;99.90;;;;;;4951387;29;20044;-81
2023/09/23 06:48:25;;;;;;;17.45;11.35;;;11.60;99.90;;;;;;4944811;29;20465;-81
2023/09/23 06:50:57;;;;;;;18.15;11.27;;;11.60;99.90;;;;;;4948796;29;20044;-81
2023/09/23 06:53:23;;;;;;;17.60;11.93;;;11.60;99.90;;;;;;4951732;29;20095;-81
2023/09/23 06:55:50;;;;;;;19.25;12.05;;;11.70;99.90;;;;;;4939573;29;20114;-81
2023/09/23 06:58:17;;;;;;;20.98;11.77;;;11.70;99.90;;;;;;4942347;29;20058;-81
2023/09/23 07:00:43;;;;;;;19.25;12.77;;;11.70;99.90;;;;;;4945531;29;20050;-81
2023/09/23 07:03:10;;;;;;;20.17;12.68;;;11.70;99.90;;;;;;4937755;29;20040;-81
2023/09/23 07:05:38;;;;;;;20.55;12.60;;;11.80;99.90;;;;;;4939211;29;20419;-81
2023/09/23 07:08:05;;;;;;;21.20;12.88;;;11.80;99.90;;;;;;4926106;29;20035;-81
2023/09/23 07:10:39;;;;;;;23.10;13.35;;;11.80;99.90;;;;;;4952428;29;20036;-81
2023/09/23 07:13:06;;;;;;;19.38;12.30;;;11.80;99.90;;;;;;4935477;29;20054;-81
2023/09/23 07:15:37;;;;;;;24.48;14.10;;;11.80;99.90;;;;;;4933010;29;20084;-81
2023/09/23 07:18:08;;;;;;;20.77;13.20;;;11.90;99.90;;;;;;4954212;29;20052;-81
2023/09/23 07:20:35;;;;;;;19.95;12.75;;;11.90;99.90;;;;;;4954333;29;20132;-83
2023/09/23 07:23:01;;;;;;;23.08;13.25;;;11.90;99.90;;;;;;4948788;29;20591;-82
2023/09/23 07:25:28;;;;;;;22.10;13.80;;;11.90;99.90;;;;;;4951389;29;20095;-82
2023/09/23 07:27:59;;;;;;;25.95;14.73;;;11.90;99.90;;;;;;4981004;29;20035;-82
2023/09/23 07:30:25;;;;;;;19.95;14.07;;;11.90;99.90;;;;;;4961580;29;20048;-81
2023/09/23 07:32:52;;;;;;;21.75;14.30;;;12.10;99.90;;;;;;4933995;29;20104;-80
2023/09/23 07:35:18;;;;;;;21.33;13.57;;;11.90;99.90;;;;;;4953939;29;20055;-80
2023/09/23 07:37:45;;;;;;;24.05;14.00;;;12.10;99.90;;;;;;4941359;29;20046;-80
2023/09/23 07:40:12;;;;;;;22.70;14.32;;;12.10;99.90;;;;;;4970079;29;20531;-80
2023/09/23 07:42:38;;;;;;;23.88;15.18;;;12.20;99.90;;;;;;4925883;29;20048;-80
2023/09/23 07:45:06;;;;;;;24.10;15.32;;;12.30;99.90;;;;;;4938206;29;20040;-80
2023/09/23 07:47:32;;;;;;;24.67;14.90;;;12.40;99.90;;;;;;4925329;29;20040;-80
2023/09/23 07:49:59;;;;;;;25.20;15.23;;;12.50;99.90;;;;;;4938112;29;20507;-81
2023/09/23 07:52:25;;;;;;;21.02;14.15;;;12.60;99.90;;;;;;4953312;29;20050;-81
2023/09/23 07:54:52;;;;;;;25.15;15.32;;;12.70;99.90;;;;;;4938240;29;20130;-81
2023/09/23 07:57:19;;;;;;;23.75;15.38;;;12.90;99.90;;;;;;4946669;29;20055;-81
2023/09/23 07:59:45;;;;;;;23.85;15.52;;;13.00;99.90;;;;;;4979454;29;20535;-81
2023/09/23 08:02:12;;;;;;;20.40;14.43;;;13.10;99.90;;;;;;4953302;29;20040;-82
2023/09/23 08:04:39;;;;;;;21.92;14.35;;;13.20;99.90;;;;;;4956958;29;20051;-82
2023/09/23 08:07:06;;;;;;;21.83;14.20;;;13.20;99.90;;;;;;4937265;29;20043;-83
2023/09/23 08:09:33;;;;;;;21.50;14.00;;;13.30;99.90;;;;;;4950058;29;20441;-81
2023/09/23 08:11:59;;;;;;;19.95;13.48;;;13.20;99.90;;;;;;4949948;29;20051;-83
2023/09/23 08:14:26;;;;;;;19.70;13.80;;;13.20;99.90;;;;;;4947314;29;20409;-82
2023/09/23 08:16:53;;;;;;;19.88;12.88;;;13.10;99.90;;;;;;4969210;29;20498;-84
2023/09/23 08:19:19;;;;;;;20.42;13.32;;;13.20;99.90;;;;;;4950146;29;20452;-81
2023/09/23 08:21:46;;;;;;;19.92;13.45;;;13.20;99.90;;;;;;4963459;29;20040;-81
2023/09/23 08:24:12;;;;;;;21.40;13.68;;;13.20;99.90;;;;;;4981789;29;20036;-82
2023/09/23 08:26:39;;;;;;;21.48;14.07;;;13.30;99.90;;;;;;4949201;29;20047;-82
2023/09/23 08:29:06;;;;;;;21.90;13.35;;;13.50;99.90;;;;;;4969139;29;20461;-82
2023/09/23 08:31:32;;;;;;;18.65;12.45;;;13.40;99.90;;;;;;4949591;29;20039;-82
2023/09/23 08:33:59;;;;;;;19.63;13.45;;;13.40;99.90;;;;;;4956231;29;20057;-83
2023/09/23 08:36:26;;;;;;;21.50;12.98;;;13.50;99.90;;;;;;4968523;29;20044;-82
2023/09/23 08:38:53;;;;;;;18.95;13.23;;;13.50;99.90;;;;;;4953303;29;20407;-82
2023/09/23 08:41:22;;;;;;;18.55;12.15;;;13.60;99.90;;;;;;4939884;29;20051;-83
2023/09/23 08:43:51;;;;;;;19.70;12.73;;;13.70;99.90;;;;;;4948368;29;20039;-83
2023/09/23 08:46:21;;;;;;;18.83;12.13;;;13.80;99.90;;;;;;4949477;29;20142;-81
2023/09/23 08:48:48;;;;;;;18.13;11.50;;;13.80;99.90;;;;;;4939848;29;20095;-81
2023/09/23 08:51:19;;;;;;;21.50;11.93;;;13.90;99.90;;;;;;4950373;29;20036;-81
2023/09/23 08:53:47;;;;;;;21.17;11.43;;;13.90;99.90;;;;;;4955332;29;20039;-82
2023/09/23 08:56:13;;;;;;;16.88;11.40;;;13.90;99.90;;;;;;4952388;29;20071;-83
2023/09/23 08:58:42;;;;;;;15.43;10.43;;;14.00;99.90;;;;;;4948411;29;20082;-82
2023/09/23 09:01:09;;;;;;;16.10;10.85;;;14.10;99.90;;;;;;4952857;29;20047;-83
2023/09/23 09:03:37;;;;;;;16.80;11.35;;;14.20;99.90;;;;;;4936487;29;20074;-83
2023/09/23 09:06:15;;;;;;;15.25;10.13;;;14.20;99.90;;;;;;4944352;29;20847;-82
2023/09/23 09:08:42;;;;;;;15.18;9.98;;;14.10;99.90;;;;;;4969914;29;20042;-83
2023/09/23 09:11:09;;;;;;;15.85;9.90;;;14.10;99.90;;;;;;4947630;29;20040;-83
2023/09/23 09:13:36;;;;;;;14.30;9.55;;;14.30;99.90;;;;;;4939099;29;20725;-83
2023/09/23 09:16:07;;;;;;;14.75;9.85;;;14.40;99.90;;;;;;4955377;29;20043;-83
2023/09/23 09:18:33;;;;;;;13.82;9.13;;;14.60;99.90;;;;;;4951864;29;20080;-83
2023/09/23 09:21:00;;;;;;;15.40;8.73;;;14.90;99.90;;;;;;4948131;29;20132;-83
2023/09/23 09:23:30;;;;;;;14.30;8.75;;;15.00;99.90;;;;;;4939046;29;20058;-83
2023/09/23 09:25:57;;;;;;;10.98;8.27;;;15.30;99.90;;;;;;4952036;29;20047;-83
2023/09/23 09:28:24;;;;;;;10.75;8.40;;;15.40;99.90;;;;;;4952900;29;20633;-84
2023/09/23 09:30:59;;;;;;;10.35;7.70;;;15.50;99.90;;;;;;4948331;29;20122;-83
2023/09/23 09:33:27;;;;;;;11.90;8.13;;;15.60;99.90;;;;;;4942120;29;20047;-83
2023/09/23 09:35:57;;;;;;;10.65;7.57;;;15.70;99.90;;;;;;4946618;29;20138;-82
2023/09/23 09:38:27;;;;;;;11.23;7.53;;;15.70;99.90;;;;;;4963145;29;20039;-82
2023/09/23 09:41:05;;;;;;;13.25;7.22;;;15.60;99.90;;;;;;4968558;29;20075;-82
2023/09/23 09:43:33;;;;;;;10.23;7.07;;;15.40;99.90;;;;;;4951674;29;20047;-81
2023/09/23 09:46:08;;;;;;;10.80;7.63;;;15.40;99.90;;;;;;4955495;29;20047;-82
2023/09/23 09:48:41;;;;;;;9.88;6.95;;;15.30;99.90;;;;;;4955225;29;20036;-82
2023/09/23 09:51:08;;;;;;;11.82;7.20;;;15.30;99.90;;;;;;4944006;29;20039;-82
2023/09/23 09:53:39;;;;;;;10.90;7.25;;;15.20;99.90;;;;;;4954886;29;20168;-82
2023/09/23 09:56:07;;;;;;;11.48;6.70;;;15.20;99.90;;;;;;4946444;29;20043;-82
2023/09/23 09:58:38;;;;;;;9.85;6.13;;;15.20;99.90;;;;;;4948067;29;20604;-82
2023/09/23 10:01:12;;;;;;;11.50;6.13;;;15.20;99.90;;;;;;4942671;29;20059;-82
2023/09/23 10:03:45;;;;;;;10.57;6.13;;;15.40;99.90;;;;;;4954219;29;20106;-82
2023/09/23 10:06:19;;;;;;;10.30;5.90;;;15.60;99.90;;;;;;4955366;29;20043;-82
2023/09/23 10:08:49;;;;;;;8.65;5.50;;;15.80;99.90;;;;;;4955228;29;20404;-82
2023/09/23 10:11:16;;;;;;;9.52;4.70;;;16.00;99.90;;;;;;4955073;29;20407;-82
2023/09/23 10:13:43;;;;;;;7.20;4.68;;;16.20;99.90;;;;;;4947317;29;20126;-82
2023/09/23 10:16:17;;;;;;;8.63;4.97;;;16.20;99.90;;;;;;4937831;29;20130;-82
2023/09/23 10:18:53;;;;;;;7.32;4.85;;;16.40;99.90;;;;;;4967385;29;20059;-82
2023/09/23 10:21:22;;;;;;;6.03;4.38;;;16.40;99.90;;;;;;4948046;29;20055;-83
2023/09/23 10:23:54;;;;;;;9.45;4.85;;;16.50;99.90;;;;;;4939745;29;20051;-82
2023/09/23 10:35:58;;;;;;;9.45;4.25;;;16.40;99.90;;;;;;4983726;29;20046;-84
2023/09/23 10:38:34;;;;;;;5.93;4.00;;;16.30;99.90;;;;;;4958798;29;20051;-87
2023/09/23 10:41:02;;;;;;;7.97;4.15;;;16.50;99.90;;;;;;4958803;29;20058;-86
2023/09/23 10:43:29;;;;;;;8.63;4.18;;;16.50;99.90;;;;;;4959108;29;20118;-86
2023/09/23 10:46:01;;;;;;;6.38;4.25;;;16.30;99.90;;;;;;4947756;29;20075;-87
2023/09/23 10:48:29;;;;;;;7.20;4.05;;;16.30;99.90;;;;;;4950894;29;20494;-89
2023/09/23 10:50:56;;;;;;;8.65;3.83;;;16.20;99.90;;;;;;4967908;29;20043;-89
2023/09/23 10:53:24;;;;;;;5.82;3.40;;;16.20;99.90;;;;;;4944663;29;20039;-88
2023/09/23 10:55:51;;;;;;;6.65;3.30;;;16.10;99.90;;;;;;4945197;29;20067;-88
2023/09/23 10:58:19;;;;;;;9.50;3.50;;;16.10;99.90;;;;;;4955500;29;20051;-87
2023/09/23 11:00:46;;;;;;;7.80;3.63;;;16.10;99.90;;;;;;4942980;29;20120;-87
2023/09/23 11:03:22;;;;;;;6.75;3.40;;;16.20;99.90;;;;;;4946449;29;20485;-88
2023/09/23 11:05:49;;;;;;;5.72;2.85;;;16.30;99.90;;;;;;4957588;29;20039;-89
2023/09/23 11:08:19;;;;;;;6.38;2.90;;;16.60;99.90;;;;;;4959645;29;20138;-88
2023/09/23 11:11:09;;;;;;;4.85;2.67;;;16.70;99.90;;;;;;4971803;29;20508;-87
2023/09/23 11:13:36;;;;;;;6.82;2.60;;;16.70;99.90;;;;;;4971336;29;20495;-88
2023/09/23 11:16:10;;;;;;;5.18;2.60;;;16.80;99.90;;;;;;4959675;29;20039;-87
2023/09/23 11:18:39;;;;;;;6.47;2.45;;;17.00;99.90;;;;;;4946089;29;20868;-86
2023/09/23 11:21:06;;;;;;;6.28;2.20;;;17.20;99.90;;;;;;4953416;29;20123;-87
2023/09/23 11:23:34;;;;;;;5.28;2.40;;;17.10;99.90;;;;;;4955452;29;20043;-86
2023/09/23 11:26:02;;;;;;;7.40;2.20;;;17.00;99.90;;;;;;4950254;29;20040;-90
2023/09/23 11:28:28;;;;;;;4.78;2.22;;;16.90;99.90;;;;;;4973219;29;20077;-87
2023/09/23 11:30:57;;;;;;;7.47;2.47;;;16.80;99.90;;;;;;4955330;29;20071;-88
2023/09/23 11:33:26;;;;;;;7.18;2.65;;;16.70;99.90;;;;;;4953088;29;20043;-87
2023/09/23 11:35:54;;;;;;;5.95;2.95;;;16.60;99.90;;;;;;4948517;29;20050;-89
2023/09/23 11:38:21;;;;;;;8.75;3.15;;;16.50;99.90;;;;;;4946938;29;20132;-87
2023/09/23 11:40:48;;;;;;;5.72;2.72;;;16.40;99.90;;;;;;4946660;29;20040;-86
2023/09/23 11:43:15;;;;;;;8.45;2.78;;;16.40;99.90;;;;;;4949272;29;20130;-87
2023/09/23 11:45:41;;;;;;;4.88;2.92;;;16.30;99.90;;;;;;4948607;29;20031;-86
2023/09/23 11:48:09;;;;;;;9.63;3.38;;;16.30;99.90;;;;;;4945251;29;20054;-86
2023/09/23 11:50:36;;;;;;;5.75;2.88;;;16.30;99.90;;;;;;4944737;29;20036;-86
2023/09/23 11:53:04;;;;;;;5.82;2.95;;;16.40;99.90;;;;;;4952055;29;20039;-86
2023/09/23 11:55:32;;;;;;;6.38;2.60;;;16.30;99.90;;;;;;4947597;29;20423;-86
2023/09/23 11:57:59;;;;;;;6.05;2.70;;;16.30;99.90;;;;;;4945999;29;20508;-86
2023/09/23 12:00:26;;;;;;;6.65;2.40;;;16.30;99.90;;;;;;4940844;29;20039;-86
2023/09/23 12:02:53;;;;;;;5.20;2.28;;;16.30;99.90;;;;;;4942560;29;20048;-86
2023/09/23 12:05:20;;;;;;;4.93;2.00;;;16.30;99.90;;;;;;4943261;29;20043;-86
2023/09/23 12:07:47;;;;;;;9.73;2.47;;;16.20;99.90;;;;;;4960444;29;20118;-86
2023/09/23 12:10:13;;;;;;;5.97;2.53;;;16.20;99.90;;;;;;4941859;29;20050;-86
2023/09/23 12:12:42;;;;;;;7.15;2.63;;;16.20;99.90;;;;;;4962691;29;20488;-86
2023/09/23 12:15:09;;;;;;;6.38;2.50;;;16.30;99.90;;;;;;4939436;29;20871;-84
2023/09/23 12:17:37;;;;;;;7.25;2.50;;;16.40;99.90;;;;;;4952863;29;20047;-85
2023/09/23 12:20:10;;;;;;;5.13;2.38;;;16.50;99.90;;;;;;4952628;29;20087;-85
2023/09/23 12:22:41;;;;;;;6.40;2.33;;;16.50;99.90;;;;;;4947971;29;20100;-85
2023/09/23 12:25:08;;;;;;;5.95;2.40;;;16.60;99.90;;;;;;4956782;29;20035;-85
2023/09/23 12:27:34;;;;;;;5.53;2.50;;;16.70;99.90;;;;;;4956415;29;20042;-85
2023/09/23 12:30:01;;;;;;;7.45;2.28;;;16.60;99.90;;;;;;4952636;29;20043;-85
2023/09/23 12:32:28;;;;;;;6.20;2.50;;;16.60;99.90;;;;;;4939235;29;20468;-85
2023/09/23 12:34:55;;;;;;;6.93;2.35;;;16.40;99.90;;;;;;4951329;29;20049;-85
2023/09/23 12:37:21;;;;;;;6.00;2.42;;;16.40;99.90;;;;;;4944357;29;20040;-85
2023/09/23 12:39:50;;;;;;;14.70;3.13;;;16.30;99.90;;;;;;4952372;29;20051;-86
2023/09/23 12:42:16;;;;;;;8.20;2.13;;;16.00;99.90;;;;;;4960094;28;20051;-87
2023/09/23 12:44:43;;;;;;;5.53;2.13;;;15.70;99.90;;;;;;4949160;29;20044;-87
2023/09/23 12:47:10;;;;;;;6.60;2.53;;;15.50;99.90;;;;;;4956755;29;20102;-89
2023/09/23 12:49:37;;;;;;;5.25;2.65;;;15.20;99.90;;;;;;4951271;29;20056;-87
2023/09/23 12:52:05;;;;;;;6.00;2.92;;;15.00;99.90;;;;;;4954096;29;20043;-90
2023/09/23 12:54:31;;;;;;;7.07;2.80;;;15.00;99.90;;;;;;4957545;29;20031;-90
2023/09/23 12:56:58;;;;;;;5.70;2.80;;;14.90;99.90;;;;;;4945090;29;20187;-88